createdAt,value
2022-10-05T00:00:08.955Z,72.11
2022-10-05T00:00:18.889Z,72.11
2022-10-05T00:00:28.942Z,72.31
2022-10-05T00:00:38.841Z,72.31
2022-10-05T00:00:48.835Z,72.21
2022-10-05T00:00:58.841Z,72.21
2022-10-05T00:01:08.953Z,72.21
2022-10-05T00:01:18.913Z,72.11
2022-10-05T00:01:28.943Z,72.01
2022-10-05T00:01:38.959Z,71.91
2022-10-05T00:01:48.862Z,71.91
2022-10-05T00:01:59.006Z,71.91
2022-10-05T00:02:08.915Z,71.91
2022-10-05T00:02:18.899Z,71.91
2022-10-05T00:02:28.953Z,71.91
2022-10-05T00:02:38.944Z,71.91
2022-10-05T00:02:48.931Z,71.91
2022-10-05T00:02:58.915Z,71.91
2022-10-05T00:03:08.902Z,71.91
2022-10-05T00:03:18.903Z,71.91
2022-10-05T00:03:28.952Z,72.11
2022-10-05T00:03:38.827Z,72.11
2022-10-05T00:03:48.904Z,72.11
2022-10-05T00:03:59.048Z,72.11
2022-10-05T00:04:08.893Z,72.11
2022-10-05T00:04:18.897Z,72.11
2022-10-05T00:04:28.883Z,72.11
2022-10-05T00:04:38.956Z,72.11
2022-10-05T00:04:48.979Z,72.11
2022-10-05T00:04:59.011Z,72.01
2022-10-05T00:05:08.991Z,72.01
2022-10-05T00:05:18.952Z,72.01
2022-10-05T00:05:28.913Z,72.01
2022-10-05T00:05:38.956Z,72.01
2022-10-05T00:05:48.953Z,72.11
2022-10-05T00:05:58.876Z,72.11
2022-10-05T00:06:08.922Z,72.11
2022-10-05T00:06:18.951Z,72.11
2022-10-05T00:06:28.943Z,72.11
2022-10-05T00:06:38.950Z,72.11
2022-10-05T00:06:49.157Z,72.11
2022-10-05T00:06:58.903Z,72.11
2022-10-05T00:07:08.883Z,72.11
2022-10-05T00:07:18.875Z,72.11
2022-10-05T00:07:28.903Z,72.11
2022-10-05T00:07:38.848Z,72.11
2022-10-05T00:07:48.930Z,72.11
2022-10-05T00:07:58.915Z,72.11
2022-10-05T00:08:08.871Z,72.01
2022-10-05T00:08:18.822Z,72.11
2022-10-05T00:08:28.915Z,72.11
2022-10-05T00:08:38.820Z,72.01
2022-10-05T00:08:48.903Z,72.11
2022-10-05T00:08:58.922Z,72.21
2022-10-05T00:09:08.886Z,72.21
2022-10-05T00:09:18.931Z,72.31
2022-10-05T00:09:28.852Z,72.31
2022-10-05T00:09:38.830Z,72.31
2022-10-05T00:09:48.845Z,72.31
2022-10-05T00:09:58.879Z,72.41
2022-10-05T00:10:08.883Z,72.41
2022-10-05T00:10:18.859Z,72.41
2022-10-05T00:10:28.900Z,72.41
2022-10-05T00:10:38.853Z,72.41
2022-10-05T00:10:48.897Z,72.41
2022-10-05T00:10:58.932Z,72.41
2022-10-05T00:11:08.933Z,72.31
2022-10-05T00:11:18.876Z,72.31
2022-10-05T00:11:28.952Z,72.21
2022-10-05T00:11:38.883Z,72.21
2022-10-05T00:11:49.058Z,72.21
2022-10-05T00:11:58.857Z,72.21
2022-10-05T00:12:08.858Z,72.21
2022-10-05T00:12:18.936Z,72.21
2022-10-05T00:12:28.846Z,72.21
2022-10-05T00:12:38.890Z,72.21
2022-10-05T00:12:48.946Z,72.31
2022-10-05T00:12:58.939Z,72.31
2022-10-05T00:13:08.859Z,72.41
2022-10-05T00:13:18.900Z,72.41
2022-10-05T00:13:28.902Z,72.31
2022-10-05T00:13:38.854Z,72.31
2022-10-05T00:13:48.949Z,72.21
2022-10-05T00:13:58.915Z,72.21
2022-10-05T00:14:08.898Z,72.21
2022-10-05T00:14:18.905Z,72.31
2022-10-05T00:14:28.846Z,72.31
2022-10-05T00:14:38.918Z,72.31
2022-10-05T00:14:48.833Z,72.31
2022-10-05T00:14:58.864Z,72.21
2022-10-05T00:15:08.913Z,72.21
2022-10-05T00:15:18.923Z,72.21
2022-10-05T00:15:28.950Z,72.11
2022-10-05T00:15:38.835Z,72.21
2022-10-05T00:15:48.952Z,72.21
2022-10-05T00:15:58.927Z,72.31
2022-10-05T00:16:08.943Z,72.31
2022-10-05T00:16:18.871Z,72.31
2022-10-05T00:16:28.947Z,72.41
2022-10-05T00:16:38.934Z,72.41
2022-10-05T00:16:49.489Z,72.31
2022-10-05T00:16:59.027Z,72.31
2022-10-05T00:17:08.907Z,72.31
2022-10-05T00:17:18.894Z,72.31
2022-10-05T00:17:28.899Z,72.31
2022-10-05T00:17:38.898Z,72.31
2022-10-05T00:17:48.843Z,72.21
2022-10-05T00:17:58.907Z,72.21
2022-10-05T00:18:08.822Z,72.21
2022-10-05T00:18:18.887Z,72.21
2022-10-05T00:18:28.903Z,72.21
2022-10-05T00:18:38.906Z,72.31
2022-10-05T00:18:48.938Z,72.31
2022-10-05T00:18:58.885Z,72.31
2022-10-05T00:19:08.830Z,72.31
2022-10-05T00:19:18.877Z,72.31
2022-10-05T00:19:28.842Z,72.21
2022-10-05T00:19:38.857Z,72.21
2022-10-05T00:19:48.869Z,72.21
2022-10-05T00:19:58.910Z,72.21
2022-10-05T00:20:08.863Z,72.21
2022-10-05T00:20:18.907Z,72.21
2022-10-05T00:20:28.885Z,72.21
2022-10-05T00:20:38.908Z,72.21
2022-10-05T00:20:48.889Z,72.01
2022-10-05T00:20:58.924Z,71.91
2022-10-05T00:21:08.943Z,71.80
2022-10-05T00:21:18.842Z,71.70
2022-10-05T00:21:28.929Z,71.70
2022-10-05T00:21:38.868Z,71.60
2022-10-05T00:21:48.932Z,71.50
2022-10-05T00:21:58.922Z,71.50
2022-10-05T00:22:08.838Z,71.50
2022-10-05T00:22:18.942Z,71.50
2022-10-05T00:22:28.943Z,71.50
2022-10-05T00:22:38.933Z,71.60
2022-10-05T00:22:48.881Z,71.60
2022-10-05T00:22:58.864Z,71.60
2022-10-05T00:23:08.911Z,71.60
2022-10-05T00:23:18.939Z,71.70
2022-10-05T00:23:28.936Z,71.70
2022-10-05T00:23:38.939Z,71.80
2022-10-05T00:23:48.904Z,71.80
2022-10-05T00:23:58.944Z,71.91
2022-10-05T00:24:08.946Z,72.01
2022-10-05T00:24:18.944Z,72.21
2022-10-05T00:24:28.830Z,72.31
2022-10-05T00:24:38.853Z,72.31
2022-10-05T00:24:48.836Z,72.41
2022-10-05T00:24:58.897Z,72.41
2022-10-05T00:25:08.878Z,72.41
2022-10-05T00:25:18.913Z,72.41
2022-10-05T00:25:28.910Z,72.41
2022-10-05T00:25:38.900Z,72.21
2022-10-05T00:25:48.918Z,72.21
2022-10-05T00:25:58.924Z,72.11
2022-10-05T00:26:08.899Z,72.11
2022-10-05T00:26:18.902Z,72.11
2022-10-05T00:26:28.867Z,72.11
2022-10-05T00:26:38.951Z,72.11
2022-10-05T00:26:52.663Z,72.11
2022-10-05T00:26:58.948Z,72.11
2022-10-05T00:27:08.920Z,72.11
2022-10-05T00:27:18.866Z,72.11
2022-10-05T00:27:28.934Z,72.11
2022-10-05T00:27:38.909Z,72.11
2022-10-05T00:27:48.876Z,72.11
2022-10-05T00:27:58.958Z,72.24
2022-10-05T00:28:09.014Z,72.34
2022-10-05T00:28:18.924Z,72.45
2022-10-05T00:28:29.017Z,72.55
2022-10-05T00:28:38.905Z,72.65
2022-10-05T00:28:48.894Z,72.65
2022-10-05T00:28:58.877Z,72.75
2022-10-05T00:29:08.846Z,72.75
2022-10-05T00:29:18.822Z,72.75
2022-10-05T00:29:28.886Z,72.65
2022-10-05T00:29:38.900Z,72.55
2022-10-05T00:29:48.953Z,72.55
2022-10-05T00:29:58.827Z,72.55
2022-10-05T00:30:08.821Z,72.45
2022-10-05T00:30:18.828Z,72.55
2022-10-05T00:30:28.870Z,72.55
2022-10-05T00:30:38.927Z,72.65
2022-10-05T00:30:48.881Z,72.75
2022-10-05T00:30:58.833Z,72.75
2022-10-05T00:31:08.942Z,72.75
2022-10-05T00:31:19.001Z,72.75
2022-10-05T00:31:28.875Z,72.86
2022-10-05T00:31:38.967Z,72.86
2022-10-05T00:31:48.945Z,72.86
2022-10-05T00:31:58.992Z,72.86
2022-10-05T00:32:08.891Z,72.96
2022-10-05T00:32:18.837Z,73.06
2022-10-05T00:32:28.900Z,73.06
2022-10-05T00:32:38.906Z,73.06
2022-10-05T00:32:48.952Z,73.06
2022-10-05T00:32:59.954Z,73.16
2022-10-05T00:33:08.872Z,73.16
2022-10-05T00:33:18.952Z,73.26
2022-10-05T00:33:28.944Z,73.16
2022-10-05T00:33:38.869Z,73.16
2022-10-05T00:33:48.907Z,73.19
2022-10-05T00:33:58.902Z,73.16
2022-10-05T00:34:08.892Z,73.19
2022-10-05T00:34:18.936Z,73.10
2022-10-05T00:34:28.887Z,73.10
2022-10-05T00:34:38.930Z,73.10
2022-10-05T00:34:48.848Z,73.10
2022-10-05T00:34:58.843Z,73.10
2022-10-05T00:35:08.834Z,73.10
2022-10-05T00:35:18.954Z,73.19
2022-10-05T00:35:28.919Z,73.19
2022-10-05T00:35:38.945Z,73.19
2022-10-05T00:35:48.941Z,73.19
2022-10-05T00:35:58.948Z,73.19
2022-10-05T00:36:08.862Z,73.19
2022-10-05T00:36:18.879Z,73.30
2022-10-05T00:36:28.819Z,73.30
2022-10-05T00:36:38.891Z,73.40
2022-10-05T00:36:49.387Z,73.40
2022-10-05T00:36:58.830Z,73.40
2022-10-05T00:37:08.861Z,73.40
2022-10-05T00:37:18.878Z,73.50
2022-10-05T00:37:28.826Z,73.50
2022-10-05T00:37:38.917Z,73.60
2022-10-05T00:37:48.845Z,73.60
2022-10-05T00:37:58.929Z,73.60
2022-10-05T00:38:08.952Z,73.71
2022-10-05T00:38:18.936Z,73.71
2022-10-05T00:38:28.883Z,73.81
2022-10-05T00:38:38.959Z,73.71
2022-10-05T00:38:48.857Z,73.71
2022-10-05T00:38:58.846Z,73.71
2022-10-05T00:39:08.915Z,73.71
2022-10-05T00:39:18.914Z,73.60
2022-10-05T00:39:28.869Z,73.60
2022-10-05T00:39:38.913Z,73.60
2022-10-05T00:39:48.848Z,73.60
2022-10-05T00:39:58.915Z,73.60
2022-10-05T00:40:08.905Z,73.71
2022-10-05T00:40:18.889Z,73.71
2022-10-05T00:40:28.836Z,73.71
2022-10-05T00:40:38.946Z,73.71
2022-10-05T00:40:48.824Z,73.71
2022-10-05T00:40:58.934Z,73.81
2022-10-05T00:41:08.908Z,73.81
2022-10-05T00:41:18.892Z,73.91
2022-10-05T00:41:28.864Z,73.91
2022-10-05T00:41:38.960Z,73.91
2022-10-05T00:41:48.928Z,73.91
2022-10-05T00:41:58.906Z,73.91
2022-10-05T00:42:08.881Z,73.91
2022-10-05T00:42:18.826Z,73.91
2022-10-05T00:42:28.881Z,73.91
2022-10-05T00:42:38.830Z,74.01
2022-10-05T00:42:48.853Z,74.05
2022-10-05T00:42:58.826Z,74.11
2022-10-05T00:43:08.944Z,74.11
2022-10-05T00:43:18.917Z,74.15
2022-10-05T00:43:28.915Z,74.15
2022-10-05T00:43:38.829Z,74.25
2022-10-05T00:43:48.927Z,74.25
2022-10-05T00:43:58.870Z,74.25
2022-10-05T00:44:08.878Z,74.35
2022-10-05T00:44:18.911Z,74.35
2022-10-05T00:44:28.901Z,74.35
2022-10-05T00:44:38.827Z,74.35
2022-10-05T00:44:48.944Z,74.35
2022-10-05T00:44:58.902Z,74.35
2022-10-05T00:45:08.917Z,74.45
2022-10-05T00:45:18.894Z,74.45
2022-10-05T00:45:28.929Z,74.45
2022-10-05T00:45:38.951Z,74.45
2022-10-05T00:45:49.058Z,74.55
2022-10-05T00:45:58.968Z,74.55
2022-10-05T00:46:08.943Z,74.55
2022-10-05T00:46:19.010Z,74.55
2022-10-05T00:46:28.838Z,74.66
2022-10-05T00:46:38.883Z,74.66
2022-10-05T00:46:49.046Z,74.55
2022-10-05T00:46:58.912Z,74.55
2022-10-05T00:47:08.883Z,74.55
2022-10-05T00:47:18.899Z,74.55
2022-10-05T00:47:28.878Z,74.55
2022-10-05T00:47:38.952Z,74.55
2022-10-05T00:47:48.944Z,74.55
2022-10-05T00:47:58.877Z,74.55
2022-10-05T00:48:08.866Z,74.55
2022-10-05T00:48:18.834Z,74.66
2022-10-05T00:48:28.827Z,74.66
2022-10-05T00:48:38.880Z,74.76
2022-10-05T00:48:48.826Z,74.86
2022-10-05T00:48:58.952Z,74.86
2022-10-05T00:49:08.859Z,74.96
2022-10-05T00:49:18.864Z,74.96
2022-10-05T00:49:28.897Z,74.96
2022-10-05T00:49:38.899Z,74.96
2022-10-05T00:49:48.876Z,74.96
2022-10-05T00:49:58.871Z,75.07
2022-10-05T00:50:08.927Z,75.10
2022-10-05T00:50:18.890Z,75.10
2022-10-05T00:50:28.873Z,75.20
2022-10-05T00:50:38.831Z,75.20
2022-10-05T00:50:48.928Z,75.20
2022-10-05T00:50:58.836Z,75.20
2022-10-05T00:51:08.945Z,75.20
2022-10-05T00:51:18.940Z,75.20
2022-10-05T00:51:28.870Z,75.20
2022-10-05T00:51:38.910Z,75.20
2022-10-05T00:51:48.877Z,75.31
2022-10-05T00:51:58.846Z,75.41
2022-10-05T00:52:08.937Z,75.41
2022-10-05T00:52:18.922Z,75.41
2022-10-05T00:52:28.910Z,75.41
2022-10-05T00:52:38.864Z,75.41
2022-10-05T00:52:48.899Z,75.51
2022-10-05T00:52:58.897Z,75.51
2022-10-05T00:53:08.877Z,75.51
2022-10-05T00:53:18.899Z,75.41
2022-10-05T00:53:28.870Z,75.41
2022-10-05T00:53:38.889Z,75.31
2022-10-05T00:53:48.878Z,75.41
2022-10-05T00:53:58.851Z,75.41
2022-10-05T00:54:08.857Z,75.51
2022-10-05T00:54:18.873Z,75.51
2022-10-05T00:54:28.876Z,75.41
2022-10-05T00:54:38.863Z,75.41
2022-10-05T00:54:48.960Z,75.51
2022-10-05T00:54:58.949Z,75.51
2022-10-05T00:55:08.942Z,75.51
2022-10-05T00:55:18.921Z,75.51
2022-10-05T00:55:28.821Z,75.61
2022-10-05T00:55:38.950Z,75.75
2022-10-05T00:55:48.877Z,75.85
2022-10-05T00:55:58.857Z,75.85
2022-10-05T00:56:08.873Z,75.85
2022-10-05T00:56:18.889Z,75.95
2022-10-05T00:56:28.828Z,75.95
2022-10-05T00:56:38.844Z,75.95
2022-10-05T00:56:49.163Z,75.95
2022-10-05T00:56:58.833Z,75.95
2022-10-05T00:57:08.879Z,75.95
2022-10-05T00:57:18.824Z,76.06
2022-10-05T00:57:28.956Z,76.16
2022-10-05T00:57:38.939Z,76.26
2022-10-05T00:57:48.931Z,76.36
2022-10-05T00:57:58.871Z,76.36
2022-10-05T00:58:08.837Z,76.46
2022-10-05T00:58:18.881Z,76.46
2022-10-05T00:58:28.874Z,76.36
2022-10-05T00:58:38.869Z,76.36
2022-10-05T00:58:48.959Z,76.36
2022-10-05T00:58:58.870Z,76.36
2022-10-05T00:59:08.848Z,76.36
2022-10-05T00:59:18.878Z,76.46
2022-10-05T00:59:28.934Z,76.46
2022-10-05T00:59:38.943Z,76.50
2022-10-05T00:59:48.897Z,76.60
2022-10-05T00:59:58.911Z,76.70
2022-10-05T01:00:08.878Z,76.70
2022-10-05T01:00:18.890Z,76.81
2022-10-05T01:00:28.858Z,76.90
2022-10-05T01:00:38.826Z,76.90
2022-10-05T01:00:48.871Z,76.90
2022-10-05T01:00:59.085Z,76.90
2022-10-05T01:01:08.948Z,77.01
2022-10-05T01:01:18.873Z,77.01
2022-10-05T01:01:28.992Z,76.90
2022-10-05T01:01:38.992Z,76.90
2022-10-05T01:01:48.945Z,76.81
2022-10-05T01:01:58.923Z,76.70
2022-10-05T01:02:08.990Z,76.70
2022-10-05T01:02:18.994Z,76.70
2022-10-05T01:02:32.976Z,76.70
2022-10-05T01:02:39.033Z,76.81
2022-10-05T01:02:48.930Z,76.81
2022-10-05T01:02:58.848Z,76.81
2022-10-05T01:03:08.837Z,76.81
2022-10-05T01:03:18.872Z,76.81
2022-10-05T01:03:28.941Z,76.81
2022-10-05T01:03:38.870Z,76.90
2022-10-05T01:03:48.942Z,77.01
2022-10-05T01:03:58.848Z,77.11
2022-10-05T01:04:08.879Z,77.11
2022-10-05T01:04:18.846Z,77.11
2022-10-05T01:04:28.955Z,77.11
2022-10-05T01:04:38.904Z,77.11
2022-10-05T01:04:48.950Z,77.22
2022-10-05T01:04:58.923Z,77.22
2022-10-05T01:05:08.892Z,77.22
2022-10-05T01:05:18.823Z,77.22
2022-10-05T01:05:28.842Z,77.11
2022-10-05T01:05:38.908Z,77.11
2022-10-05T01:05:48.936Z,77.11
2022-10-05T01:05:58.863Z,77.11
2022-10-05T01:06:08.892Z,77.11
2022-10-05T01:06:18.886Z,77.01
2022-10-05T01:06:28.851Z,77.01
2022-10-05T01:06:38.928Z,77.01
2022-10-05T01:06:48.957Z,77.01
2022-10-05T01:06:58.951Z,77.01
2022-10-05T01:07:08.909Z,77.11
2022-10-05T01:07:18.953Z,77.11
2022-10-05T01:07:28.899Z,77.11
2022-10-05T01:07:38.877Z,77.11
2022-10-05T01:07:48.877Z,77.11
2022-10-05T01:07:58.888Z,77.11
2022-10-05T01:08:08.949Z,77.11
2022-10-05T01:08:18.820Z,77.11
2022-10-05T01:08:28.949Z,77.11
2022-10-05T01:08:38.920Z,77.11
2022-10-05T01:08:48.867Z,77.11
2022-10-05T01:08:58.837Z,77.22
2022-10-05T01:09:08.897Z,77.31
2022-10-05T01:09:18.851Z,77.31
2022-10-05T01:09:28.832Z,77.31
2022-10-05T01:09:38.906Z,77.31
2022-10-05T01:09:48.822Z,77.31
2022-10-05T01:09:58.906Z,77.42
2022-10-05T01:10:08.913Z,77.42
2022-10-05T01:10:18.950Z,77.52
2022-10-05T01:10:28.824Z,77.62
2022-10-05T01:10:38.839Z,77.62
2022-10-05T01:10:48.949Z,77.62
2022-10-05T01:10:58.956Z,77.62
2022-10-05T01:11:08.889Z,77.62
2022-10-05T01:11:18.864Z,77.72
2022-10-05T01:11:28.841Z,77.72
2022-10-05T01:11:38.965Z,77.72
2022-10-05T01:11:48.936Z,77.72
2022-10-05T01:11:58.911Z,77.72
2022-10-05T01:12:08.851Z,77.83
2022-10-05T01:12:18.864Z,77.83
2022-10-05T01:12:28.928Z,77.72
2022-10-05T01:12:38.912Z,77.72
2022-10-05T01:12:48.842Z,77.72
2022-10-05T01:12:58.915Z,77.83
2022-10-05T01:13:08.887Z,77.72
2022-10-05T01:13:18.964Z,77.72
2022-10-05T01:13:28.847Z,77.72
2022-10-05T01:13:38.954Z,77.72
2022-10-05T01:13:48.840Z,77.72
2022-10-05T01:13:58.919Z,77.62
2022-10-05T01:14:08.908Z,77.52
2022-10-05T01:14:18.841Z,77.52
2022-10-05T01:14:28.956Z,77.52
2022-10-05T01:14:38.893Z,77.52
2022-10-05T01:14:48.840Z,77.52
2022-10-05T01:14:58.831Z,77.52
2022-10-05T01:15:08.898Z,77.52
2022-10-05T01:15:18.952Z,77.52
2022-10-05T01:15:28.831Z,77.52
2022-10-05T01:15:38.943Z,77.52
2022-10-05T01:15:48.854Z,77.62
2022-10-05T01:15:59.067Z,77.62
2022-10-05T01:16:08.860Z,77.62
2022-10-05T01:16:18.915Z,77.62
2022-10-05T01:16:28.878Z,77.62
2022-10-05T01:16:39.023Z,77.62
2022-10-05T01:16:49.512Z,77.62
2022-10-05T01:16:58.975Z,77.62
2022-10-05T01:17:08.954Z,77.83
2022-10-05T01:17:18.837Z,77.86
2022-10-05T01:17:28.896Z,77.83
2022-10-05T01:17:38.866Z,77.83
2022-10-05T01:17:48.834Z,77.86
2022-10-05T01:17:58.881Z,77.86
2022-10-05T01:18:08.908Z,77.76
2022-10-05T01:18:18.885Z,77.76
2022-10-05T01:18:28.881Z,77.76
2022-10-05T01:18:38.899Z,77.76
2022-10-05T01:18:48.866Z,77.76
2022-10-05T01:18:58.942Z,77.76
2022-10-05T01:19:08.922Z,77.86
2022-10-05T01:19:18.876Z,77.86
2022-10-05T01:19:28.927Z,77.86
2022-10-05T01:19:38.908Z,77.86
2022-10-05T01:19:48.834Z,77.86
2022-10-05T01:19:58.932Z,77.86
2022-10-05T01:20:08.896Z,77.86
2022-10-05T01:20:18.857Z,77.86
2022-10-05T01:20:28.944Z,77.86
2022-10-05T01:20:38.842Z,77.76
2022-10-05T01:20:48.925Z,77.76
2022-10-05T01:20:58.939Z,77.56
2022-10-05T01:21:08.936Z,77.56
2022-10-05T01:21:18.862Z,77.45
2022-10-05T01:21:28.873Z,77.45
2022-10-05T01:21:38.823Z,77.56
2022-10-05T01:21:48.959Z,77.56
2022-10-05T01:21:58.904Z,77.66
2022-10-05T01:22:08.950Z,77.66
2022-10-05T01:22:18.922Z,77.66
2022-10-05T01:22:28.851Z,77.66
2022-10-05T01:22:38.933Z,77.66
2022-10-05T01:22:48.917Z,77.66
2022-10-05T01:22:58.873Z,77.66
2022-10-05T01:23:08.918Z,77.66
2022-10-05T01:23:18.825Z,77.76
2022-10-05T01:23:28.952Z,77.76
2022-10-05T01:23:38.923Z,77.66
2022-10-05T01:23:48.851Z,77.66
2022-10-05T01:23:58.919Z,77.66
2022-10-05T01:24:08.896Z,77.56
2022-10-05T01:24:18.850Z,77.56
2022-10-05T01:24:28.937Z,77.56
2022-10-05T01:24:38.824Z,77.45
2022-10-05T01:24:48.903Z,77.45
2022-10-05T01:24:58.838Z,77.45
2022-10-05T01:25:08.936Z,77.35
2022-10-05T01:25:18.852Z,77.35
2022-10-05T01:25:28.945Z,77.35
2022-10-05T01:25:38.916Z,77.35
2022-10-05T01:25:48.863Z,77.35
2022-10-05T01:25:58.949Z,77.35
2022-10-05T01:26:08.919Z,77.45
2022-10-05T01:26:18.893Z,77.45
2022-10-05T01:26:28.827Z,77.56
2022-10-05T01:26:38.954Z,77.56
2022-10-05T01:26:49.172Z,77.56
2022-10-05T01:26:58.915Z,77.56
2022-10-05T01:27:08.907Z,77.56
2022-10-05T01:27:18.866Z,77.56
2022-10-05T01:27:28.847Z,77.56
2022-10-05T01:27:38.897Z,77.66
2022-10-05T01:27:48.929Z,77.66
2022-10-05T01:27:58.945Z,77.66
2022-10-05T01:28:09.002Z,77.66
2022-10-05T01:28:18.932Z,77.66
2022-10-05T01:28:29.087Z,77.66
2022-10-05T01:28:38.926Z,77.66
2022-10-05T01:28:48.825Z,77.66
2022-10-05T01:28:58.865Z,77.66
2022-10-05T01:29:08.844Z,77.66
2022-10-05T01:29:18.905Z,77.66
2022-10-05T01:29:28.936Z,77.76
2022-10-05T01:29:38.855Z,77.76
2022-10-05T01:29:48.853Z,77.86
2022-10-05T01:29:58.856Z,77.86
2022-10-05T01:30:08.833Z,77.76
2022-10-05T01:30:18.850Z,77.76
2022-10-05T01:30:28.918Z,77.66
2022-10-05T01:30:38.923Z,77.66
2022-10-05T01:30:48.948Z,77.66
2022-10-05T01:30:58.891Z,77.66
2022-10-05T01:31:09.004Z,77.66
2022-10-05T01:31:18.877Z,77.66
2022-10-05T01:31:28.868Z,77.66
2022-10-05T01:31:38.914Z,77.66
2022-10-05T01:31:48.903Z,77.66
2022-10-05T01:31:58.948Z,77.66
2022-10-05T01:32:08.820Z,77.66
2022-10-05T01:32:18.837Z,77.76
2022-10-05T01:32:28.823Z,77.86
2022-10-05T01:32:38.937Z,77.97
2022-10-05T01:32:48.824Z,77.97
2022-10-05T01:32:58.823Z,77.97
2022-10-05T01:33:08.944Z,77.97
2022-10-05T01:33:18.939Z,77.97
2022-10-05T01:33:28.846Z,77.97
2022-10-05T01:33:38.851Z,78.07
2022-10-05T01:33:48.912Z,77.97
2022-10-05T01:33:58.905Z,77.97
2022-10-05T01:34:11.501Z,77.97
2022-10-05T01:34:18.901Z,77.97
2022-10-05T01:34:28.869Z,77.86
2022-10-05T01:34:38.871Z,77.86
2022-10-05T01:34:48.888Z,77.86
2022-10-05T01:34:58.865Z,77.86
2022-10-05T01:35:08.919Z,77.86
2022-10-05T01:35:18.831Z,77.86
2022-10-05T01:35:28.928Z,77.86
2022-10-05T01:35:38.927Z,77.86
2022-10-05T01:35:48.950Z,77.86
2022-10-05T01:35:58.867Z,77.86
2022-10-05T01:36:08.883Z,77.86
2022-10-05T01:36:18.882Z,77.86
2022-10-05T01:36:28.941Z,77.97
2022-10-05T01:36:38.917Z,77.97
2022-10-05T01:36:49.334Z,77.97
2022-10-05T01:36:58.951Z,77.86
2022-10-05T01:37:08.830Z,77.86
2022-10-05T01:37:18.832Z,77.90
2022-10-05T01:37:28.865Z,77.86
2022-10-05T01:37:38.912Z,77.90
2022-10-05T01:37:48.944Z,77.86
2022-10-05T01:37:58.850Z,78.00
2022-10-05T01:38:08.941Z,78.00
2022-10-05T01:38:18.855Z,78.11
2022-10-05T01:38:28.877Z,78.11
2022-10-05T01:38:38.874Z,78.11
2022-10-05T01:38:48.909Z,78.11
2022-10-05T01:38:58.887Z,78.11
2022-10-05T01:39:08.855Z,78.11
2022-10-05T01:39:18.874Z,78.11
2022-10-05T01:39:28.913Z,78.11
2022-10-05T01:39:38.882Z,78.11
2022-10-05T01:39:48.838Z,78.11
2022-10-05T01:39:58.958Z,78.11
2022-10-05T01:40:08.945Z,78.20
2022-10-05T01:40:18.894Z,78.20
2022-10-05T01:40:28.930Z,78.20
2022-10-05T01:40:38.834Z,78.20
2022-10-05T01:40:48.878Z,78.20
2022-10-05T01:40:58.865Z,78.31
2022-10-05T01:41:08.857Z,78.31
2022-10-05T01:41:18.903Z,78.41
2022-10-05T01:41:28.826Z,78.41
2022-10-05T01:41:38.911Z,78.41
2022-10-05T01:41:48.827Z,78.41
2022-10-05T01:41:58.842Z,78.52
2022-10-05T01:42:08.960Z,78.61
2022-10-05T01:42:18.838Z,78.61
2022-10-05T01:42:28.861Z,78.72
2022-10-05T01:42:38.918Z,78.72
2022-10-05T01:42:48.865Z,78.72
2022-10-05T01:42:58.912Z,78.72
2022-10-05T01:43:08.902Z,78.61
2022-10-05T01:43:18.889Z,78.61
2022-10-05T01:43:28.891Z,78.61
2022-10-05T01:43:38.947Z,78.58
2022-10-05T01:43:48.908Z,78.52
2022-10-05T01:43:58.913Z,78.52
2022-10-05T01:44:08.887Z,78.48
2022-10-05T01:44:18.827Z,78.52
2022-10-05T01:44:28.945Z,78.58
2022-10-05T01:44:38.911Z,78.58
2022-10-05T01:44:48.845Z,78.48
2022-10-05T01:44:58.880Z,78.48
2022-10-05T01:45:08.924Z,78.48
2022-10-05T01:45:18.849Z,78.48
2022-10-05T01:45:28.894Z,78.48
2022-10-05T01:45:38.933Z,78.48
2022-10-05T01:45:48.989Z,78.48
2022-10-05T01:45:59.054Z,78.48
2022-10-05T01:46:08.910Z,78.48
2022-10-05T01:46:18.912Z,78.48
2022-10-05T01:46:28.899Z,78.38
2022-10-05T01:46:38.820Z,78.38
2022-10-05T01:46:49.265Z,78.38
2022-10-05T01:46:58.859Z,78.38
2022-10-05T01:47:08.880Z,78.38
2022-10-05T01:47:18.830Z,78.48
2022-10-05T01:47:28.863Z,78.48
2022-10-05T01:47:38.855Z,78.48
2022-10-05T01:47:48.871Z,78.48
2022-10-05T01:47:58.945Z,78.58
2022-10-05T01:48:08.906Z,78.58
2022-10-05T01:48:18.948Z,78.48
2022-10-05T01:48:28.961Z,78.48
2022-10-05T01:48:38.839Z,78.48
2022-10-05T01:48:48.924Z,78.48
2022-10-05T01:48:58.827Z,78.38
2022-10-05T01:49:08.860Z,78.27
2022-10-05T01:49:18.914Z,78.27
2022-10-05T01:49:28.920Z,78.17
2022-10-05T01:49:38.829Z,78.17
2022-10-05T01:49:48.891Z,78.07
2022-10-05T01:49:58.877Z,78.07
2022-10-05T01:50:08.869Z,77.97
2022-10-05T01:50:18.861Z,77.86
2022-10-05T01:50:28.948Z,77.86
2022-10-05T01:50:38.912Z,77.86
2022-10-05T01:50:48.932Z,77.86
2022-10-05T01:50:58.874Z,77.86
2022-10-05T01:51:08.946Z,77.86
2022-10-05T01:51:18.821Z,77.76
2022-10-05T01:51:28.891Z,77.76
2022-10-05T01:51:38.904Z,77.76
2022-10-05T01:51:48.893Z,77.66
2022-10-05T01:51:58.889Z,77.66
2022-10-05T01:52:08.885Z,77.66
2022-10-05T01:52:18.863Z,77.66
2022-10-05T01:52:28.910Z,77.66
2022-10-05T01:52:38.866Z,77.76
2022-10-05T01:52:48.864Z,77.86
2022-10-05T01:52:58.846Z,77.97
2022-10-05T01:53:08.837Z,77.97
2022-10-05T01:53:18.864Z,77.86
2022-10-05T01:53:28.821Z,77.86
2022-10-05T01:53:38.858Z,77.76
2022-10-05T01:53:48.850Z,77.66
2022-10-05T01:53:58.853Z,77.66
2022-10-05T01:54:08.908Z,77.56
2022-10-05T01:54:18.922Z,77.56
2022-10-05T01:54:28.836Z,77.56
2022-10-05T01:54:38.875Z,77.56
2022-10-05T01:54:48.834Z,77.56
2022-10-05T01:54:58.875Z,77.56
2022-10-05T01:55:08.829Z,77.45
2022-10-05T01:55:18.938Z,77.45
2022-10-05T01:55:28.841Z,77.35
2022-10-05T01:55:38.891Z,77.35
2022-10-05T01:55:48.900Z,77.35
2022-10-05T01:55:58.827Z,77.35
2022-10-05T01:56:08.913Z,77.45
2022-10-05T01:56:18.877Z,77.45
2022-10-05T01:56:28.965Z,77.45
2022-10-05T01:56:38.847Z,77.45
2022-10-05T01:56:49.143Z,77.56
2022-10-05T01:56:58.912Z,77.56
2022-10-05T01:57:08.922Z,77.56
2022-10-05T01:57:18.933Z,77.56
2022-10-05T01:57:28.847Z,77.56
2022-10-05T01:57:38.931Z,77.45
2022-10-05T01:57:48.883Z,77.45
2022-10-05T01:57:58.889Z,77.45
2022-10-05T01:58:08.936Z,77.56
2022-10-05T01:58:18.874Z,77.56
2022-10-05T01:58:28.874Z,77.66
2022-10-05T01:58:38.946Z,77.66
2022-10-05T01:58:48.908Z,77.76
2022-10-05T01:58:58.882Z,77.76
2022-10-05T01:59:08.850Z,77.86
2022-10-05T01:59:18.908Z,77.76
2022-10-05T01:59:28.904Z,77.86
2022-10-05T01:59:38.911Z,77.86
2022-10-05T01:59:48.927Z,77.86
2022-10-05T01:59:58.913Z,77.97
2022-10-05T02:00:08.835Z,78.07
2022-10-05T02:00:18.898Z,78.07
2022-10-05T02:00:28.948Z,77.97
2022-10-05T02:00:38.902Z,77.86
2022-10-05T02:00:48.901Z,77.86
2022-10-05T02:00:58.841Z,77.86
2022-10-05T02:01:08.996Z,77.86
2022-10-05T02:01:18.977Z,77.76
2022-10-05T02:01:29.007Z,77.76
2022-10-05T02:01:38.885Z,77.76
2022-10-05T02:01:48.899Z,77.86
2022-10-05T02:01:58.899Z,77.76
2022-10-05T02:02:08.948Z,77.76
2022-10-05T02:02:19.004Z,77.76
2022-10-05T02:02:28.875Z,77.76
2022-10-05T02:02:38.888Z,77.86
2022-10-05T02:02:48.867Z,77.86
2022-10-05T02:02:58.944Z,77.86
2022-10-05T02:03:08.929Z,77.86
2022-10-05T02:03:18.914Z,77.76
2022-10-05T02:03:28.885Z,77.86
2022-10-05T02:03:38.853Z,77.86
2022-10-05T02:03:48.860Z,77.86
2022-10-05T02:03:58.835Z,77.86
2022-10-05T02:04:08.894Z,77.86
2022-10-05T02:04:42.713Z,77.86
2022-10-05T02:04:59.900Z,77.97
2022-10-05T02:05:03.022Z,77.97
2022-10-05T02:05:03.713Z,77.97
2022-10-05T02:05:04.416Z,77.97
2022-10-05T02:05:08.903Z,77.97
2022-10-05T02:05:18.925Z,77.97
2022-10-05T02:05:28.912Z,78.00
2022-10-05T02:05:38.851Z,77.97
2022-10-05T02:05:48.849Z,77.97
2022-10-05T02:05:58.854Z,78.00
2022-10-05T02:06:08.954Z,78.00
2022-10-05T02:06:18.889Z,78.00
2022-10-05T02:06:28.893Z,78.00
2022-10-05T02:06:38.859Z,78.00
2022-10-05T02:06:49.245Z,78.00
2022-10-05T02:06:58.929Z,78.11
2022-10-05T02:07:08.904Z,78.11
2022-10-05T02:07:18.836Z,78.11
2022-10-05T02:07:28.888Z,78.20
2022-10-05T02:07:38.933Z,78.31
2022-10-05T02:07:48.885Z,78.31
2022-10-05T02:07:58.876Z,78.41
2022-10-05T02:08:08.950Z,78.52
2022-10-05T02:08:18.856Z,78.52
2022-10-05T02:08:28.943Z,78.52
2022-10-05T02:08:38.902Z,78.61
2022-10-05T02:08:48.899Z,78.61